createdAt,value
2022-12-15T00:00:19.466Z,-4.40
2022-12-15T00:03:04.986Z,-4.40
2022-12-15T00:05:50.695Z,-4.40
2022-12-15T00:08:35.930Z,-4.40
2022-12-15T00:11:21.826Z,-4.50
2022-12-15T00:14:07.092Z,-4.50
2022-12-15T00:16:52.830Z,-4.40
2022-12-15T00:19:37.953Z,-4.50
2022-12-15T00:22:25.000Z,-4.50
2022-12-15T00:25:10.298Z,-4.50
2022-12-15T00:27:55.738Z,-4.50
2022-12-15T00:30:41.019Z,-4.50
2022-12-15T00:33:29.768Z,-4.50
2022-12-15T00:36:17.803Z,-4.50
2022-12-15T00:38:45.783Z,-4.50
2022-12-15T00:41:16.200Z,-4.50
2022-12-15T00:43:43.998Z,-4.50
2022-12-15T00:46:29.368Z,-4.50
2022-12-15T00:48:57.457Z,-4.50
2022-12-15T00:51:43.397Z,-4.50
2022-12-15T00:54:29.512Z,-4.60
2022-12-15T00:57:15.472Z,-4.50
2022-12-15T01:00:01.167Z,-4.50
2022-12-15T01:02:46.785Z,-4.50
2022-12-15T01:05:32.810Z,-4.50
2022-12-15T01:08:18.959Z,-4.50
2022-12-15T01:11:04.998Z,-4.60
2022-12-15T01:13:50.715Z,-4.60
2022-12-15T01:16:36.356Z,-4.60
2022-12-15T01:19:22.534Z,-4.60
2022-12-15T01:21:49.799Z,-4.60
2022-12-15T01:24:17.114Z,-4.60
2022-12-15T01:26:44.029Z,-4.60
2022-12-15T01:29:11.087Z,-4.60
2022-12-15T01:31:38.180Z,-4.50
2022-12-15T01:34:05.687Z,-4.50
2022-12-15T01:36:32.847Z,-4.50
2022-12-15T01:38:59.750Z,-4.50
2022-12-15T01:41:27.347Z,-4.60
2022-12-15T01:43:54.589Z,-4.50
2022-12-15T01:46:23.344Z,-4.60
2022-12-15T01:49:27.008Z,-4.60
2022-12-15T01:52:03.089Z,-4.60
2022-12-15T01:54:43.341Z,-4.60
2022-12-15T01:57:18.902Z,-4.60
2022-12-15T01:59:54.518Z,-4.70
2022-12-15T02:02:27.016Z,-4.70
2022-12-15T02:04:57.034Z,-4.70
2022-12-15T02:07:24.492Z,-4.70
2022-12-15T02:09:55.456Z,-4.70
2022-12-15T02:12:55.825Z,-4.70
2022-12-15T02:15:44.183Z,-4.80
2022-12-15T02:18:52.406Z,-4.80
2022-12-15T02:21:40.716Z,-4.80
2022-12-15T02:24:55.130Z,-4.80
2022-12-15T02:27:50.024Z,-4.80
2022-12-15T02:30:41.298Z,-4.80
2022-12-15T02:33:25.075Z,-4.90
2022-12-15T02:36:28.574Z,-4.90
2022-12-15T02:38:55.557Z,-4.90
2022-12-15T02:41:42.111Z,-4.90
2022-12-15T02:44:11.943Z,-4.90
2022-12-15T02:46:47.865Z,-4.90
2022-12-15T02:49:32.549Z,-4.90
2022-12-15T02:52:13.295Z,-4.90
2022-12-15T02:55:34.208Z,-4.90
2022-12-15T02:58:20.394Z,-4.90
2022-12-15T03:00:58.469Z,-4.90
2022-12-15T03:03:29.683Z,-4.80
2022-12-15T03:05:57.829Z,-4.80
2022-12-15T03:08:24.790Z,-4.80
2022-12-15T03:10:54.782Z,-4.70
2022-12-15T03:13:23.474Z,-4.70
2022-12-15T03:15:51.466Z,-4.60
2022-12-15T03:18:18.790Z,-4.60
2022-12-15T03:20:45.852Z,-4.50
2022-12-15T03:23:12.877Z,-4.50
2022-12-15T03:25:39.783Z,-4.40
2022-12-15T03:28:06.760Z,-4.30
2022-12-15T03:30:33.846Z,-4.30
2022-12-15T03:33:00.768Z,-4.20
2022-12-15T03:35:27.921Z,-4.10
2022-12-15T03:37:54.961Z,-4.00
2022-12-15T03:40:21.915Z,-4.00
2022-12-15T03:42:48.872Z,-3.90
2022-12-15T03:45:28.224Z,-3.80
2022-12-15T03:47:56.878Z,-3.70
2022-12-15T03:50:28.587Z,-3.70
2022-12-15T03:52:59.395Z,-3.60
2022-12-15T03:55:31.156Z,-3.50
2022-12-15T03:57:59.400Z,-3.50
2022-12-15T04:00:27.172Z,-3.50
2022-12-15T04:02:54.763Z,-3.40
2022-12-15T04:05:29.165Z,-3.40
2022-12-15T04:07:58.863Z,-3.40
2022-12-15T04:10:34.027Z,-3.40
2022-12-15T04:13:08.984Z,-3.40
2022-12-15T04:15:38.854Z,-3.50
2022-12-15T04:18:12.257Z,-3.50
2022-12-15T04:20:40.745Z,-3.50
2022-12-15T04:23:08.313Z,-3.60
2022-12-15T04:25:55.518Z,-3.60
2022-12-15T04:28:41.402Z,-3.60
2022-12-15T04:31:41.604Z,-3.60
2022-12-15T04:34:38.363Z,-3.60
2022-12-15T04:37:26.512Z,-3.50
2022-12-15T04:40:12.900Z,-3.50
2022-12-15T04:43:05.661Z,-3.50
2022-12-15T04:45:51.621Z,-3.50
2022-12-15T04:48:37.032Z,-3.50
2022-12-15T04:51:23.974Z,-3.40
2022-12-15T04:54:09.881Z,-3.50
2022-12-15T04:56:55.206Z,-3.50
2022-12-15T04:59:40.783Z,-3.50
2022-12-15T05:02:26.222Z,-3.50
2022-12-15T05:05:12.175Z,-3.50
2022-12-15T05:07:57.496Z,-3.60
2022-12-15T05:10:43.114Z,-3.70
2022-12-15T05:13:28.660Z,-3.70
2022-12-15T05:16:14.530Z,-3.70
2022-12-15T05:18:59.847Z,-3.70
2022-12-15T05:21:45.639Z,-3.70
2022-12-15T05:24:30.945Z,-3.70
2022-12-15T05:27:16.407Z,-3.70
2022-12-15T05:30:01.753Z,-3.70
2022-12-15T05:32:33.247Z,-3.80
2022-12-15T05:35:01.300Z,-3.80
2022-12-15T05:37:28.321Z,-3.80
2022-12-15T05:39:55.228Z,-3.80
2022-12-15T05:42:22.368Z,-3.80
2022-12-15T05:44:49.336Z,-3.90
2022-12-15T05:47:16.963Z,-3.90
2022-12-15T05:49:44.014Z,-3.60
2022-12-15T05:52:11.031Z,-3.90
2022-12-15T05:54:38.056Z,-3.80
2022-12-15T05:57:04.946Z,-3.80
2022-12-15T05:59:32.355Z,-3.90
2022-12-15T06:01:59.370Z,-3.80
2022-12-15T06:04:26.757Z,-3.80
2022-12-15T06:06:53.811Z,-3.80
2022-12-15T06:09:20.825Z,-3.80
2022-12-15T06:11:48.052Z,-3.80
2022-12-15T06:14:15.203Z,-3.70
2022-12-15T06:16:50.721Z,-3.70
2022-12-15T06:19:19.140Z,-3.70
2022-12-15T06:21:46.303Z,-3.70
2022-12-15T06:24:13.218Z,-3.60
2022-12-15T06:26:41.013Z,-3.70
2022-12-15T06:29:12.503Z,-3.70
2022-12-15T06:31:41.162Z,-3.60
2022-12-15T06:34:12.338Z,-3.60
2022-12-15T06:36:39.437Z,-3.60
2022-12-15T06:39:11.367Z,-3.60
2022-12-15T06:41:38.861Z,-3.70
2022-12-15T06:44:06.319Z,-3.60
2022-12-15T06:46:35.308Z,-3.60
2022-12-15T06:49:02.578Z,-3.70
2022-12-15T06:51:29.839Z,-3.60
2022-12-15T06:53:57.148Z,-3.60
2022-12-15T06:56:34.474Z,-3.70
2022-12-15T06:59:04.317Z,-3.70
2022-12-15T07:01:32.512Z,-3.70
2022-12-15T07:04:01.474Z,-3.70
2022-12-15T07:06:36.729Z,-3.70
2022-12-15T07:09:08.284Z,-3.70
2022-12-15T07:11:35.683Z,-3.80
2022-12-15T07:14:03.239Z,-3.80
2022-12-15T07:16:31.264Z,-3.90
2022-12-15T07:18:58.536Z,-3.90
2022-12-15T07:21:25.494Z,-3.90
2022-12-15T07:23:55.298Z,-3.90
2022-12-15T07:26:24.122Z,-4.00
2022-12-15T07:28:51.412Z,-4.00
2022-12-15T07:31:18.454Z,-4.10
2022-12-15T07:33:47.558Z,-4.00
2022-12-15T07:36:14.657Z,-4.10
2022-12-15T07:38:41.613Z,-4.10
2022-12-15T07:41:10.383Z,-4.10
2022-12-15T07:43:38.463Z,-4.10
2022-12-15T07:46:06.334Z,-4.20
2022-12-15T07:48:33.837Z,-4.20
2022-12-15T07:51:10.865Z,-4.20
2022-12-15T07:53:40.178Z,-4.20
2022-12-15T07:56:09.593Z,-4.20
2022-12-15T07:58:37.930Z,-4.20
2022-12-15T08:01:08.318Z,-4.30
2022-12-15T08:03:37.099Z,-4.30
2022-12-15T08:06:11.210Z,-4.30
2022-12-15T08:08:39.624Z,-4.30
2022-12-15T08:11:11.893Z,-4.30
2022-12-15T08:16:28.064Z,-4.20
2022-12-15T08:18:57.092Z,-4.20
2022-12-15T08:21:24.770Z,-4.20
2022-12-15T08:23:51.749Z,-4.10
2022-12-15T08:26:23.649Z,-4.10
2022-12-15T08:28:54.222Z,-4.10
2022-12-15T08:31:23.611Z,-4.00
2022-12-15T08:33:51.115Z,-3.80
2022-12-15T08:36:20.383Z,-3.60
2022-12-15T08:38:48.090Z,-3.40
2022-12-15T08:41:19.987Z,-3.00
2022-12-15T08:43:51.707Z,-2.70
2022-12-15T08:46:22.483Z,-2.30
2022-12-15T08:48:50.353Z,-1.90
2022-12-15T08:51:17.720Z,-1.70
2022-12-15T08:53:45.967Z,-1.30
2022-12-15T08:56:19.537Z,-1.00
2022-12-15T08:58:48.086Z,-0.60
2022-12-15T09:01:23.359Z,-0.20
2022-12-15T09:03:56.601Z,0.20
2022-12-15T09:06:33.692Z,0.60
2022-12-15T09:09:07.855Z,1.00
2022-12-15T09:11:35.493Z,1.30
2022-12-15T09:14:03.581Z,1.70
2022-12-15T09:16:30.784Z,2.20
2022-12-15T09:18:59.932Z,2.60
2022-12-15T09:21:30.250Z,2.90
2022-12-15T09:24:03.276Z,3.30
2022-12-15T09:26:32.909Z,3.70
2022-12-15T09:29:01.932Z,4.00
2022-12-15T09:31:32.762Z,4.30
2022-12-15T09:34:01.242Z,4.60
2022-12-15T09:36:30.397Z,4.80
2022-12-15T09:38:57.616Z,5.00
2022-12-15T09:41:31.305Z,5.20
2022-12-15T09:44:07.943Z,5.40
2022-12-15T09:46:56.640Z,5.70
2022-12-15T09:49:47.856Z,6.00
2022-12-15T09:52:20.559Z,6.40
2022-12-15T09:54:47.831Z,6.60
2022-12-15T09:57:55.964Z,6.90
2022-12-15T10:00:38.026Z,7.10
2022-12-15T10:03:30.622Z,7.50
2022-12-15T10:06:22.034Z,7.70
2022-12-15T10:09:01.967Z,8.00
2022-12-15T10:11:51.031Z,8.40
2022-12-15T10:15:06.546Z,8.60
2022-12-15T10:17:56.795Z,8.70
2022-12-15T10:20:28.683Z,8.80
2022-12-15T10:23:02.902Z,8.80
2022-12-15T10:25:33.497Z,8.80
2022-12-15T10:28:34.401Z,8.80
2022-12-15T10:31:15.578Z,8.80
2022-12-15T10:33:47.153Z,8.80
2022-12-15T10:36:17.372Z,8.80
2022-12-15T10:38:50.392Z,8.80
2022-12-15T10:41:21.195Z,8.80
2022-12-15T10:43:53.365Z,8.80
2022-12-15T10:46:27.830Z,8.90
2022-12-15T10:49:23.553Z,8.80
2022-12-15T10:52:00.170Z,8.70
2022-12-15T10:54:45.245Z,9.00
2022-12-15T10:57:19.668Z,8.80
2022-12-15T10:59:46.921Z,8.90
2022-12-15T11:02:24.087Z,9.00
2022-12-15T11:05:01.441Z,9.10
2022-12-15T11:07:52.300Z,9.30
2022-12-15T11:10:51.937Z,9.50
2022-12-15T11:13:22.918Z,9.70
2022-12-15T11:15:56.460Z,9.80
2022-12-15T11:18:45.289Z,10.00
2022-12-15T11:21:25.316Z,10.20
2022-12-15T11:24:20.151Z,10.40
2022-12-15T11:27:12.151Z,10.40
2022-12-15T11:30:08.442Z,10.50
2022-12-15T11:32:38.840Z,10.40
2022-12-15T11:35:14.388Z,10.40
2022-12-15T11:37:42.449Z,10.40
2022-12-15T11:40:38.823Z,10.50
2022-12-15T11:43:43.522Z,10.60
2022-12-15T11:46:20.834Z,10.80
2022-12-15T11:49:25.304Z,11.00
2022-12-15T11:52:34.987Z,11.30
2022-12-15T11:55:41.882Z,11.50
2022-12-15T11:58:39.410Z,11.60
2022-12-15T12:01:34.098Z,11.60
2022-12-15T12:04:46.766Z,11.30
2022-12-15T12:07:41.947Z,11.20
2022-12-15T12:10:36.153Z,10.80
2022-12-15T12:13:44.929Z,10.50
2022-12-15T12:16:34.376Z,10.10
2022-12-15T12:19:16.392Z,9.80
2022-12-15T12:21:51.321Z,9.50
2022-12-15T12:24:28.706Z,9.20
2022-12-15T12:27:07.665Z,8.90
2022-12-15T12:29:53.432Z,8.70
2022-12-15T12:32:50.478Z,8.50
2022-12-15T12:35:33.572Z,8.30
2022-12-15T12:38:04.849Z,8.10
2022-12-15T12:40:40.789Z,8.00
2022-12-15T12:43:14.011Z,8.00
2022-12-15T12:45:52.078Z,8.20
2022-12-15T12:48:37.807Z,8.40
2022-12-15T12:51:34.746Z,8.80
2022-12-15T12:54:02.633Z,8.90
2022-12-15T12:56:42.527Z,9.10
2022-12-15T12:59:31.556Z,9.30
2022-12-15T13:02:20.593Z,9.40
2022-12-15T13:05:05.127Z,9.60
2022-12-15T13:07:41.058Z,9.70
2022-12-15T13:10:08.093Z,9.70
2022-12-15T13:13:00.589Z,9.70
2022-12-15T13:15:27.583Z,9.60
2022-12-15T13:18:25.177Z,9.30
2022-12-15T13:20:57.412Z,9.00
2022-12-15T13:23:26.012Z,9.10
2022-12-15T13:25:55.997Z,8.60
2022-12-15T13:28:44.297Z,8.40
2022-12-15T13:31:18.911Z,8.20
2022-12-15T13:34:01.447Z,8.00
2022-12-15T13:36:40.064Z,7.90
2022-12-15T13:39:13.161Z,7.80
2022-12-15T13:42:23.639Z,7.60
2022-12-15T13:44:45.317Z,7.40
2022-12-15T13:47:19.339Z,7.20
2022-12-15T13:50:02.284Z,7.10
2022-12-15T13:55:39.055Z,6.90
2022-12-15T13:58:17.808Z,6.80
2022-12-15T14:00:54.355Z,6.70
2022-12-15T14:03:21.925Z,6.70
2022-12-15T14:05:55.414Z,6.40
2022-12-15T14:08:26.035Z,6.40
2022-12-15T14:10:56.414Z,6.20
2022-12-15T14:13:26.717Z,6.00
2022-12-15T14:15:56.263Z,5.80
2022-12-15T14:18:28.272Z,5.60
2022-12-15T14:20:55.390Z,5.40
2022-12-15T14:23:26.897Z,5.20
2022-12-15T14:26:04.933Z,5.00
2022-12-15T14:28:36.314Z,4.90
2022-12-15T14:31:07.754Z,4.70
2022-12-15T14:33:40.239Z,4.60
2022-12-15T14:36:11.767Z,4.40
2022-12-15T14:38:51.484Z,4.20
2022-12-15T14:41:28.584Z,4.10
2022-12-15T14:44:36.960Z,4.00
2022-12-15T14:47:07.335Z,3.80
2022-12-15T14:49:43.956Z,3.70
2022-12-15T14:52:42.082Z,3.50
2022-12-15T14:55:37.278Z,3.40
2022-12-15T14:58:32.404Z,3.20
2022-12-15T15:01:02.415Z,3.10
2022-12-15T15:03:09.751Z,6.90
2022-12-15T15:03:39.645Z,3.00
2022-12-15T15:06:12.537Z,2.90
2022-12-15T15:08:53.396Z,2.70
2022-12-15T15:11:29.611Z,2.60
2022-12-15T15:14:01.262Z,2.50
2022-12-15T15:16:28.504Z,2.40
2022-12-15T15:18:57.264Z,2.30
2022-12-15T15:21:27.423Z,2.50
2022-12-15T15:24:23.671Z,2.10
2022-12-15T15:26:52.155Z,2.00
2022-12-15T15:29:41.139Z,1.90
2022-12-15T15:32:25.295Z,1.90
2022-12-15T15:34:52.564Z,1.80
2022-12-15T15:37:25.471Z,1.70
2022-12-15T15:39:54.531Z,1.60
2022-12-15T15:42:25.468Z,1.50
2022-12-15T15:44:57.688Z,1.40
2022-12-15T15:47:26.283Z,1.40
2022-12-15T15:49:55.797Z,1.30
2022-12-15T15:52:23.323Z,1.20
2022-12-15T15:54:51.761Z,1.20
2022-12-15T15:57:19.493Z,1.20
2022-12-15T15:59:47.027Z,1.00
2022-12-15T16:02:15.235Z,1.00
2022-12-15T16:04:43.897Z,0.90
2022-12-15T16:07:24.825Z,0.80
2022-12-15T16:09:53.499Z,0.80
2022-12-15T16:12:52.817Z,0.70
2022-12-15T16:15:29.580Z,0.70
2022-12-15T16:17:56.533Z,0.60
2022-12-15T16:20:27.472Z,0.60
2022-12-15T16:23:00.986Z,0.50
2022-12-15T16:25:41.441Z,0.50
2022-12-15T16:28:21.356Z,0.40
2022-12-15T16:30:48.994Z,0.40
2022-12-15T16:33:16.461Z,0.30
2022-12-15T16:35:45.159Z,0.30
2022-12-15T16:38:29.126Z,0.20
2022-12-15T16:40:58.898Z,0.20
2022-12-15T16:43:32.879Z,0.20
2022-12-15T16:46:03.604Z,0.10
2022-12-15T16:48:37.013Z,0.10
2022-12-15T16:51:08.852Z,0.10
2022-12-15T16:53:39.511Z,0.10
2022-12-15T16:56:08.640Z,0.00
2022-12-15T16:58:36.354Z,0.00
2022-12-15T17:01:03.923Z,0.00
2022-12-15T17:03:31.328Z,0.00
2022-12-15T17:06:06.658Z,0.00
2022-12-15T17:08:41.658Z,0.00
2022-12-15T17:11:21.902Z,-0.10
2022-12-15T17:13:54.464Z,-0.10
2022-12-15T17:16:24.773Z,-0.10
2022-12-15T17:18:52.293Z,-0.20
2022-12-15T17:21:28.285Z,-0.20
2022-12-15T17:24:00.107Z,-0.20
2022-12-15T17:26:31.086Z,-0.20
2022-12-15T17:29:14.811Z,-0.20
2022-12-15T17:31:41.817Z,-0.30
2022-12-15T17:34:33.526Z,-0.30
2022-12-15T17:37:06.461Z,-0.30
2022-12-15T17:39:35.267Z,-0.40
2022-12-15T17:42:03.028Z,-0.40
2022-12-15T17:44:36.940Z,-0.40
2022-12-15T17:47:07.967Z,-0.40
2022-12-15T17:49:37.546Z,-0.40
2022-12-15T17:52:24.959Z,-0.40
2022-12-15T17:54:52.135Z,-0.40
2022-12-15T17:57:19.177Z,-0.50
2022-12-15T17:59:46.280Z,-0.50
2022-12-15T18:02:14.833Z,-0.50
2022-12-15T18:04:43.010Z,-0.50
2022-12-15T18:07:20.900Z,-0.60
2022-12-15T18:09:49.894Z,-0.60
2022-12-15T18:12:27.645Z,-0.60
2022-12-15T18:14:55.960Z,-0.70
2022-12-15T18:17:23.667Z,-0.70
2022-12-15T18:19:50.753Z,-0.70
2022-12-15T18:22:23.906Z,-0.70
2022-12-15T18:24:53.689Z,-0.80
2022-12-15T18:27:27.275Z,-0.80
2022-12-15T18:29:55.019Z,-0.80
2022-12-15T18:32:26.461Z,-0.90
2022-12-15T18:34:54.568Z,-0.90
2022-12-15T18:37:24.947Z,-0.60
2022-12-15T18:39:52.581Z,-1.00
2022-12-15T18:42:21.601Z,-1.00
2022-12-15T18:44:53.628Z,-1.00
2022-12-15T18:47:23.835Z,-1.00
2022-12-15T18:49:50.984Z,-1.00
2022-12-15T18:52:23.764Z,-1.00
2022-12-15T18:54:53.205Z,-1.10
2022-12-15T18:57:29.947Z,-1.10
2022-12-15T19:00:17.413Z,-1.10
2022-12-15T19:02:44.643Z,-1.10
2022-12-15T19:05:27.657Z,-1.10
2022-12-15T19:08:20.131Z,-1.10
2022-12-15T19:11:31.111Z,-1.10
2022-12-15T19:14:01.290Z,-1.20
2022-12-15T19:16:49.408Z,-1.20
2022-12-15T19:19:34.841Z,-1.20
2022-12-15T19:22:21.063Z,-1.20
2022-12-15T19:24:56.717Z,-1.20
2022-12-15T19:27:26.682Z,-1.30
2022-12-15T19:29:55.078Z,-1.30
2022-12-15T19:32:23.140Z,-1.30
2022-12-15T19:34:50.515Z,-1.30
2022-12-15T19:37:26.374Z,-1.30
2022-12-15T19:39:56.374Z,-1.40
2022-12-15T19:42:35.770Z,-1.40
2022-12-15T19:45:22.278Z,-1.40
2022-12-15T19:47:49.952Z,-1.40
2022-12-15T19:50:23.787Z,-1.50
2022-12-15T19:52:55.106Z,-1.40
2022-12-15T19:55:29.931Z,-1.40
2022-12-15T19:57:56.992Z,-1.50
2022-12-15T20:00:27.719Z,-1.40
2022-12-15T20:02:55.905Z,-1.50
2022-12-15T20:05:24.895Z,-1.50
2022-12-15T20:07:54.799Z,-1.50
2022-12-15T20:10:31.721Z,-1.60
2022-12-15T20:13:01.044Z,-1.60
2022-12-15T20:15:28.444Z,-1.60
2022-12-15T20:17:58.212Z,-1.70
2022-12-15T20:20:27.976Z,-1.70
2022-12-15T20:22:59.722Z,-1.70
2022-12-15T20:25:31.084Z,-1.70
2022-12-15T20:28:00.526Z,-1.80
2022-12-15T20:30:32.675Z,-1.80
2022-12-15T20:33:03.083Z,-1.80
2022-12-15T20:35:33.327Z,-1.90
2022-12-15T20:38:04.323Z,-1.90
2022-12-15T20:40:32.124Z,-1.90
2022-12-15T20:42:59.229Z,-1.90
2022-12-15T20:45:27.939Z,-1.90
2022-12-15T20:47:55.975Z,-2.00
2022-12-15T20:50:24.708Z,-2.00
2022-12-15T20:52:52.672Z,-1.90
2022-12-15T20:55:22.383Z,-2.00
2022-12-15T20:57:49.531Z,-2.00
2022-12-15T21:00:20.772Z,-2.10
2022-12-15T21:02:49.032Z,-2.10
2022-12-15T21:05:23.146Z,-2.10
2022-12-15T21:07:50.827Z,-2.10
2022-12-15T21:10:20.276Z,-2.20
2022-12-15T21:12:49.222Z,-2.20
2022-12-15T21:15:20.514Z,-2.20
2022-12-15T21:18:03.860Z,-2.20
2022-12-15T21:20:41.707Z,-2.30
2022-12-15T21:23:28.668Z,-2.30
2022-12-15T21:25:58.702Z,-2.30
2022-12-15T21:28:25.789Z,-2.30
2022-12-15T21:30:53.348Z,-2.40
2022-12-15T21:33:20.911Z,-2.40
2022-12-15T21:35:48.532Z,-2.50
2022-12-15T21:38:29.295Z,-2.50
2022-12-15T21:41:03.079Z,-2.50
2022-12-15T21:43:34.119Z,-2.50
2022-12-15T21:46:04.419Z,-2.60
2022-12-15T21:48:50.096Z,-2.60
2022-12-15T21:51:17.880Z,-2.70
2022-12-15T21:53:46.133Z,-2.70
2022-12-15T21:56:21.579Z,-2.70
2022-12-15T21:58:52.777Z,-2.80
2022-12-15T22:01:28.813Z,-2.70
2022-12-15T22:03:58.146Z,-2.80
2022-12-15T22:06:28.840Z,-2.80
2022-12-15T22:09:00.614Z,-2.80
2022-12-15T22:11:29.950Z,-2.90
2022-12-15T22:14:03.301Z,-2.90
2022-12-15T22:16:30.441Z,-2.90
2022-12-15T22:18:58.699Z,-2.90
2022-12-15T22:21:27.346Z,-2.90
2022-12-15T22:23:54.303Z,-3.00
2022-12-15T22:26:29.581Z,-3.00
2022-12-15T22:29:00.596Z,-3.00
2022-12-15T22:31:28.534Z,-3.00
2022-12-15T22:33:55.644Z,-3.00
2022-12-15T22:36:22.612Z,-3.00
2022-12-15T22:38:49.514Z,-3.00
2022-12-15T22:41:24.354Z,-3.00
2022-12-15T22:43:56.306Z,-3.10
2022-12-15T22:46:25.085Z,-3.10
2022-12-15T22:48:54.794Z,-3.10
2022-12-15T22:51:21.990Z,-3.10
2022-12-15T22:53:48.925Z,-3.10
2022-12-15T22:56:27.175Z,-3.10
2022-12-15T22:59:01.500Z,-3.20
2022-12-15T23:01:29.477Z,-3.20
2022-12-15T23:03:56.614Z,-3.20
2022-12-15T23:06:23.885Z,-3.20
2022-12-15T23:08:55.903Z,-3.20
2022-12-15T23:11:39.614Z,-3.20
2022-12-15T23:14:12.043Z,-3.20
2022-12-15T23:16:39.586Z,-3.20
2022-12-15T23:19:08.086Z,-3.30
2022-12-15T23:21:36.956Z,-3.20
2022-12-15T23:24:03.969Z,-3.30
2022-12-15T23:26:30.958Z,-3.30
2022-12-15T23:28:57.917Z,-3.30
2022-12-15T23:31:25.200Z,-3.30
2022-12-15T23:33:52.385Z,-3.40
2022-12-15T23:36:19.867Z,-3.40
2022-12-15T23:38:46.903Z,-3.40
2022-12-15T23:41:18.560Z,-3.40
2022-12-15T23:43:45.690Z,-3.40
2022-12-15T23:46:12.987Z,-3.40
2022-12-15T23:48:43.292Z,-3.40
2022-12-15T23:51:19.159Z,-3.40
2022-12-15T23:53:47.393Z,-3.40
2022-12-15T23:56:17.639Z,-3.40
2022-12-15T23:58:47.610Z,-3.40
